This is the latest recevied weather packets stored in our database for station/object EA7AVH-10. If no packets are shown the sender has not sent any weather packets the latest 10 day(s).
| Time | Temp. | Humidity | Pressure | Rain* | Wind** | Luminosity | Snow |
|---|---|---|---|---|---|---|---|
| 1777421827 | 12.22° C | 76% | 918.6 hPa | - | - | - | - |
| 1777420926 | 12.22° C | 76% | 918.8 hPa | - | - | - | - |
| 1777420026 | 12.78° C | 76% | 918.8 hPa | - | - | - | - |
| 1777419125 | 12.78° C | 76% | 918.9 hPa | - | - | - | - |
| 1777418224 | 12.78° C | 75% | 919.1 hPa | - | - | - | - |
| 1777417343 | 12.78° C | 76% | 919.1 hPa | - | - | - | - |
| 1777416442 | 13.89° C | 75% | 919.2 hPa | - | - | - | - |
| 1777415541 | 14.44° C | 74% | 919.3 hPa | - | - | - | - |
| 1777414641 | 14.44° C | 74% | 919.4 hPa | - | - | - | - |
| 1777413739 | 14.44° C | 74% | 919.4 hPa | - | - | - | - |
| 1777412839 | 14.44° C | 75% | 919.4 hPa | - | - | - | - |
| 1777411938 | 14.44° C | 75% | 919.6 hPa | - | - | - | - |
| 1777411037 | 14.44° C | 75% | 919.4 hPa | - | - | - | - |
| 1777410136 | 14.44° C | 74% | 919.6 hPa | - | - | - | - |
| 1777409235 | 15° C | 73% | 919.8 hPa | - | - | - | - |
| 1777408335 | 15° C | 71% | 919.8 hPa | - | - | - | - |
| 1777407434 | 15° C | 71% | 919.6 hPa | - | - | - | - |
| 1777406533 | 16.11° C | 67% | 919.3 hPa | - | - | - | - |
| 1777405632 | 17.22° C | 62% | 919.1 hPa | - | - | - | - |
| 1777404731 | 17.22° C | 62% | 919 hPa | - | - | - | - |
| 1777403831 | 17.22° C | 62% | 918.9 hPa | - | - | - | - |
| 1777402930 | 17.22° C | 61% | 918.9 hPa | - | - | - | - |
| 1777402029 | 17.22° C | 61% | 918.7 hPa | - | - | - | - |
| 1777401128 | 17.78° C | 60% | 918.5 hPa | - | - | - | - |
| 1777400228 | 18.33° C | 59% | 918.4 hPa | - | - | - | - |
* Rain since midnight (hover to see other rain measurements)
** Current wind speed in m/s (hover to see current wind gust speed)